Time;durP1;ratioP1;P1;durP2;ratioP2;P2;SDS_P1;SDS_P2;PMS_P1;PMS_P2;Temp;Humidity;BMP_temperature;BMP_pressure;BME280_temperature;BME280_humidity;BME280_pressure;Samples;Min_cycle;Max_cycle;Signal;HPM_P1;HPM_P2
2022/06/26 00:00:41;;;;;;;1.57;1.40;;;;;;;;;;5091369;28;20624;-92
2022/06/26 00:03:10;;;;;;;2.00;1.60;;;18.40;98.10;;;;;;5091715;28;20640;-91
2022/06/26 00:05:37;;;;;;;1.67;1.50;;;18.30;98.80;;;;;;5091879;28;20628;-90
2022/06/26 00:08:08;;;;;;;2.03;1.90;;;18.40;99.00;;;;;;5090859;28;20624;-91
2022/06/26 00:10:35;;;;;;;1.63;1.53;;;18.20;97.70;;;;;;5091003;28;20620;-90
2022/06/26 00:13:04;;;;;;;2.10;1.90;;;;;;;;;;5090958;28;20748;-91
2022/06/26 00:15:32;;;;;;;1.87;1.60;;;;;;;;;;5091659;28;21193;-90
2022/06/26 00:17:59;;;;;;;2.10;1.27;;;18.20;96.10;;;;;;5090492;28;20631;-91
2022/06/26 00:20:29;;;;;;;7.27;2.73;;;18.40;95.80;;;;;;5090338;28;21209;-92
2022/06/26 00:23:00;;;;;;;2.50;2.30;;;18.30;96.30;;;;;;5091349;28;20611;-91
2022/06/26 00:25:27;;;;;;;2.33;1.80;;;18.60;95.70;;;;;;5091181;28;20628;-91
2022/06/26 00:27:55;;;;;;;1.83;1.73;;;;;;;;;;5091412;28;20722;-91
2022/06/26 00:30:23;;;;;;;1.10;1.00;;;;;;;;;;5090528;28;21026;-91
2022/06/26 00:32:51;;;;;;;0.80;0.80;;;18.40;94.90;;;;;;5091453;28;20647;-91
2022/06/26 00:35:19;;;;;;;1.60;1.13;;;18.60;95.80;;;;;;5091478;28;20723;-92
2022/06/26 00:37:51;;;;;;;1.17;1.17;;;18.80;94.40;;;;;;5090656;28;20612;-93
2022/06/26 00:40:21;;;;;;;2.50;1.50;;;19.00;94.50;;;;;;5074346;28;20621;-91
2022/06/26 00:42:49;;;;;;;1.30;1.20;;;;;;;;;;5069528;28;20701;-92
2022/06/26 00:45:17;;;;;;;1.50;1.40;;;;;;;;;;5069085;28;20624;-92
2022/06/26 00:47:46;;;;;;;1.20;1.10;;;;;;;;;;5070444;28;21042;-90
2022/06/26 00:50:15;;;;;;;0.80;0.80;;;;;;;;;;5070869;28;20621;-90
2022/06/26 00:52:44;;;;;;;1.67;1.33;;;19.10;92.60;;;;;;5070343;28;20702;-90
2022/06/26 00:55:14;;;;;;;1.03;0.93;;;19.10;91.90;;;;;;5071015;28;20663;-90
2022/06/26 00:57:42;;;;;;;0.90;0.90;;;19.10;92.40;;;;;;5071271;28;20631;-89
2022/06/26 01:00:11;;;;;;;1.43;1.33;;;19.20;92.30;;;;;;5070642;28;20613;-89
2022/06/26 01:02:38;;;;;;;1.23;1.13;;;19.30;92.20;;;;;;5068078;28;20601;-90
2022/06/26 01:05:07;;;;;;;0.70;0.70;;;19.40;92.30;;;;;;5069068;28;21030;-91
2022/06/26 01:07:34;;;;;;;1.60;1.50;;;19.40;92.30;;;;;;5068728;28;20614;-91
2022/06/26 01:10:02;;;;;;;1.50;1.23;;;19.30;92.70;;;;;;5072476;28;20612;-90
2022/06/26 01:12:31;;;;;;;1.17;1.07;;;19.30;92.50;;;;;;5072820;28;20691;-90
2022/06/26 01:15:00;;;;;;;1.20;1.00;;;19.20;93.60;;;;;;5072266;28;20600;-90
2022/06/26 01:17:28;;;;;;;1.10;1.00;;;19.30;93.40;;;;;;5071872;28;20621;-90
2022/06/26 01:19:57;;;;;;;1.00;1.00;;;19.30;93.20;;;;;;5072128;28;20620;-89
2022/06/26 01:22:28;;;;;;;1.10;1.00;;;19.30;93.00;;;;;;5072350;28;20621;-89
2022/06/26 01:24:56;;;;;;;0.93;0.93;;;19.20;93.30;;;;;;5073176;28;20704;-90
2022/06/26 01:27:23;;;;;;;1.07;1.07;;;19.30;93.50;;;;;;5072168;28;20686;-90
2022/06/26 01:29:50;;;;;;;1.43;0.93;;;19.30;93.30;;;;;;5072516;28;21269;-90
2022/06/26 01:32:18;;;;;;;1.70;1.60;;;19.30;93.40;;;;;;5072183;28;21012;-91
2022/06/26 01:34:47;;;;;;;1.00;1.00;;;19.40;94.00;;;;;;5072918;28;20648;-90
2022/06/26 01:37:14;;;;;;;1.30;1.10;;;19.40;94.70;;;;;;5072664;28;20682;-90
2022/06/26 01:39:44;;;;;;;1.50;0.83;;;19.30;94.10;;;;;;5072907;28;20625;-91
2022/06/26 01:42:14;;;;;;;1.40;1.30;;;19.40;94.60;;;;;;5072364;28;21003;-91
2022/06/26 01:44:45;;;;;;;0.80;0.80;;;;;;;;;;5074568;28;20675;-91
2022/06/26 01:47:14;;;;;;;1.30;1.20;;;;;;;;;;5073199;28;20720;-90
2022/06/26 01:49:41;;;;;;;1.67;1.40;;;19.10;94.70;;;;;;5072380;28;20616;-90
2022/06/26 01:52:09;;;;;;;1.10;1.10;;;19.20;95.90;;;;;;5072231;28;21271;-90
2022/06/26 01:54:36;;;;;;;1.27;1.17;;;19.00;96.00;;;;;;5071637;28;20651;-89
2022/06/26 01:57:06;;;;;;;1.10;1.00;;;18.90;96.10;;;;;;5072548;28;20655;-90
2022/06/26 01:59:33;;;;;;;1.20;1.10;;;19.00;96.00;;;;;;5071758;28;20601;-90
2022/06/26 02:02:00;;;;;;;1.00;0.90;;;19.00;96.60;;;;;;5072147;28;20620;-90
2022/06/26 02:04:27;;;;;;;1.13;1.03;;;18.90;96.40;;;;;;5072007;28;20597;-91
2022/06/26 02:06:55;;;;;;;1.23;1.13;;;18.80;96.70;;;;;;5071534;28;20620;-90
2022/06/26 02:14:59;;;;;;;0.97;0.97;;;18.80;96.40;;;;;;5013680;28;20834;-91
2022/06/26 02:17:26;;;;;;;1.70;1.47;;;18.70;97.00;;;;;;5071217;28;20641;-90
2022/06/26 02:19:53;;;;;;;1.00;1.00;;;18.90;96.80;;;;;;5071800;28;20613;-90
2022/06/26 02:22:20;;;;;;;1.00;0.90;;;;;;;;;;5071160;28;20629;-90
2022/06/26 02:24:47;;;;;;;1.60;1.30;;;18.70;95.40;;;;;;5070802;28;21028;-90
2022/06/26 02:27:15;;;;;;;1.20;1.10;;;18.80;96.10;;;;;;5071340;28;20624;-90
2022/06/26 02:29:42;;;;;;;1.33;1.23;;;18.70;96.70;;;;;;5071034;28;20628;-90
2022/06/26 02:32:09;;;;;;;1.13;1.10;;;18.70;96.00;;;;;;5070739;28;20632;-90
2022/06/26 02:34:37;;;;;;;1.30;1.20;;;;;;;;;;5070995;28;20653;-90
2022/06/26 02:37:04;;;;;;;1.30;1.20;;;18.70;96.20;;;;;;5071207;28;20708;-90
2022/06/26 02:39:31;;;;;;;1.87;1.27;;;18.60;97.20;;;;;;5070594;28;20613;-89
2022/06/26 02:41:59;;;;;;;1.37;0.93;;;;;;;;;;5070534;28;20612;-89
2022/06/26 02:44:27;;;;;;;1.17;1.17;;;18.40;97.50;;;;;;5071354;28;20662;-89
2022/06/26 02:46:54;;;;;;;1.17;1.07;;;18.40;99.40;;;;;;5071431;28;21126;-89
2022/06/26 02:49:21;;;;;;;1.30;1.20;;;18.40;98.10;;;;;;5070126;28;21163;-89
2022/06/26 02:51:48;;;;;;;1.30;1.20;;;18.40;99.00;;;;;;5070226;28;21360;-89
2022/06/26 02:54:15;;;;;;;0.87;0.87;;;18.40;98.40;;;;;;5070348;28;20636;-90
2022/06/26 02:56:44;;;;;;;1.60;1.50;;;18.40;98.40;;;;;;5070403;28;20973;-90
2022/06/26 02:59:12;;;;;;;1.30;1.20;;;;;;;;;;5071004;28;20617;-90
2022/06/26 03:01:40;;;;;;;0.93;0.93;;;18.40;98.90;;;;;;5070279;28;20612;-91
2022/06/26 03:04:07;;;;;;;2.00;1.60;;;;;;;;;;5070527;28;20621;-90
2022/06/26 03:06:35;;;;;;;0.97;0.90;;;;;;;;;;5070371;28;20693;-90
2022/06/26 03:09:02;;;;;;;1.83;1.00;;;;;;;;;;5070551;28;20675;-90
2022/06/26 03:11:29;;;;;;;1.23;1.10;;;18.30;99.40;;;;;;5070706;28;20612;-91
2022/06/26 03:13:56;;;;;;;0.97;0.83;;;18.20;99.70;;;;;;5070520;28;20633;-90
2022/06/26 03:16:23;;;;;;;1.60;1.00;;;18.30;99.70;;;;;;5070617;28;20649;-90
2022/06/26 03:18:51;;;;;;;1.40;1.30;;;18.30;98.70;;;;;;5070577;28;20609;-90
2022/06/26 03:21:18;;;;;;;0.93;0.93;;;18.30;98.40;;;;;;5069898;28;20629;-90
2022/06/26 03:26:27;;;;;;;1.27;1.17;;;;;;;;;;5067628;28;20628;-89
2022/06/26 03:28:54;;;;;;;1.27;1.00;;;;;;;;;;5070120;28;20675;-89
2022/06/26 03:31:21;;;;;;;1.20;1.10;;;18.00;99.90;;;;;;5069130;28;20728;-89
2022/06/26 03:33:48;;;;;;;1.53;1.30;;;18.00;99.90;;;;;;5068549;28;21208;-88
2022/06/26 03:36:17;;;;;;;1.33;1.10;;;17.90;99.90;;;;;;5071229;28;21232;-89
2022/06/26 03:38:46;;;;;;;1.33;1.23;;;18.10;99.90;;;;;;5071121;28;20687;-88
2022/06/26 03:41:14;;;;;;;0.60;0.60;;;;;;;;;;5071738;28;20628;-88
2022/06/26 03:43:41;;;;;;;1.33;1.17;;;18.10;99.90;;;;;;5071487;28;21218;-89
2022/06/26 03:46:08;;;;;;;1.60;1.50;;;18.10;99.90;;;;;;5071092;28;20649;-88
2022/06/26 03:48:35;;;;;;;1.17;1.07;;;18.10;99.90;;;;;;5071496;28;20621;-88
2022/06/26 03:51:03;;;;;;;1.10;1.00;;;;;;;;;;5071860;28;20605;-88
2022/06/26 03:53:32;;;;;;;1.40;1.30;;;18.00;99.90;;;;;;5071707;28;21385;-88
2022/06/26 03:55:59;;;;;;;1.57;1.47;;;18.10;99.90;;;;;;5072189;28;20653;-88
2022/06/26 03:58:26;;;;;;;1.20;1.10;;;18.20;99.80;;;;;;5071919;28;20609;-88
2022/06/26 04:00:53;;;;;;;1.37;1.37;;;18.20;99.90;;;;;;5071128;28;20625;-88
2022/06/26 04:03:21;;;;;;;1.63;1.27;;;18.20;99.90;;;;;;5071108;28;20617;-88
2022/06/26 04:05:48;;;;;;;1.10;1.10;;;18.20;99.90;;;;;;5071261;28;20721;-88
2022/06/26 04:08:16;;;;;;;1.20;1.10;;;18.30;99.90;;;;;;5071113;28;20714;-89
2022/06/26 04:10:44;;;;;;;1.97;1.40;;;18.40;99.90;;;;;;5071356;28;20662;-88
2022/06/26 04:13:13;;;;;;;1.40;1.30;;;18.40;99.90;;;;;;5070901;28;20620;-88
2022/06/26 04:15:41;;;;;;;1.83;1.73;;;18.40;99.90;;;;;;5070870;28;20650;-88
2022/06/26 04:18:08;;;;;;;1.50;1.40;;;18.40;99.90;;;;;;5071290;28;20616;-88
2022/06/26 04:20:39;;;;;;;1.23;1.13;;;18.40;99.90;;;;;;5071390;28;20724;-88
2022/06/26 04:23:08;;;;;;;1.60;1.40;;;18.30;99.90;;;;;;5071187;28;20624;-88
2022/06/26 04:25:37;;;;;;;1.50;1.40;;;18.40;99.90;;;;;;5070656;28;21038;-87
2022/06/26 04:28:06;;;;;;;1.40;1.30;;;18.40;99.90;;;;;;5070695;28;20813;-87
2022/06/26 04:30:34;;;;;;;1.33;1.23;;;18.30;99.90;;;;;;5072181;28;20645;-88
2022/06/26 04:33:01;;;;;;;1.20;1.10;;;18.20;99.90;;;;;;5073169;28;20662;-88
2022/06/26 04:35:27;;;;;;;1.23;1.13;;;18.40;99.90;;;;;;5070082;28;20743;-88
2022/06/26 04:37:55;;;;;;;1.70;1.60;;;18.40;99.90;;;;;;5070887;28;20617;-86
2022/06/26 04:40:21;;;;;;;1.87;1.70;;;18.30;99.90;;;;;;5070180;28;21187;-88
2022/06/26 04:42:48;;;;;;;1.20;1.10;;;18.30;99.90;;;;;;5070255;28;20666;-88
2022/06/26 04:45:17;;;;;;;1.40;1.13;;;18.40;99.90;;;;;;5074620;28;20697;-87
2022/06/26 04:47:44;;;;;;;1.60;1.37;;;18.50;99.90;;;;;;5074028;28;20674;-88
2022/06/26 04:50:11;;;;;;;0.97;0.90;;;18.50;99.90;;;;;;5074376;28;20690;-88
2022/06/26 04:52:38;;;;;;;1.03;0.93;;;18.60;99.90;;;;;;5073999;28;20610;-88
2022/06/26 04:55:06;;;;;;;2.30;1.90;;;18.60;99.90;;;;;;5073958;28;21248;-87
2022/06/26 04:57:33;;;;;;;1.33;1.23;;;18.60;99.90;;;;;;5073660;28;20601;-89
2022/06/26 05:00:00;;;;;;;1.30;1.20;;;18.70;99.90;;;;;;5073649;28;20633;-87
2022/06/26 05:02:28;;;;;;;1.67;1.00;;;18.70;99.90;;;;;;5073801;28;20616;-88
2022/06/26 05:04:55;;;;;;;1.93;1.50;;;18.80;99.90;;;;;;5074009;28;21211;-87
2022/06/26 05:07:22;;;;;;;1.93;1.40;;;18.80;99.90;;;;;;5073617;28;20609;-89
2022/06/26 05:09:49;;;;;;;2.87;1.43;;;18.70;99.90;;;;;;5074460;28;20678;-87
2022/06/26 05:12:16;;;;;;;1.40;1.30;;;18.70;99.90;;;;;;5073857;28;20640;-88
2022/06/26 05:14:43;;;;;;;1.60;1.13;;;18.70;99.90;;;;;;5074347;28;20698;-88
2022/06/26 05:17:10;;;;;;;1.50;1.40;;;18.70;99.90;;;;;;5073388;28;20735;-87
2022/06/26 05:19:38;;;;;;;1.50;1.40;;;18.80;99.90;;;;;;5073737;28;21170;-87
2022/06/26 05:22:06;;;;;;;1.10;1.10;;;18.90;99.90;;;;;;5065019;28;20686;-87
2022/06/26 05:24:32;;;;;;;1.60;1.50;;;18.90;99.90;;;;;;5074044;28;20615;-88
2022/06/26 05:26:59;;;;;;;1.40;1.30;;;18.80;99.90;;;;;;5073934;28;20725;-87
2022/06/26 05:29:27;;;;;;;1.07;1.00;;;18.80;99.90;;;;;;5073720;28;21151;-88
2022/06/26 05:31:54;;;;;;;2.10;1.40;;;18.90;99.90;;;;;;5073197;28;21461;-88
2022/06/26 05:34:21;;;;;;;1.30;1.20;;;18.90;99.90;;;;;;5072925;28;20640;-87
2022/06/26 05:36:49;;;;;;;2.20;2.00;;;18.90;99.90;;;;;;5072837;28;20762;-89
2022/06/26 05:39:18;;;;;;;1.63;1.53;;;18.90;99.90;;;;;;5071277;28;21202;-88
2022/06/26 05:41:45;;;;;;;2.10;1.17;;;18.90;99.90;;;;;;5072475;28;20620;-87
2022/06/26 05:44:12;;;;;;;1.60;1.50;;;18.90;99.90;;;;;;5072563;28;20711;-88
2022/06/26 05:46:41;;;;;;;1.83;1.60;;;18.80;99.90;;;;;;5072325;28;20637;-88
2022/06/26 05:49:08;;;;;;;1.20;1.10;;;18.90;99.90;;;;;;5072017;28;20621;-88
2022/06/26 05:51:35;;;;;;;1.70;1.40;;;18.90;99.90;;;;;;5072645;28;20601;-88
2022/06/26 05:54:03;;;;;;;1.40;1.30;;;18.90;99.90;;;;;;5071894;28;20621;-88
2022/06/26 05:56:30;;;;;;;1.90;1.70;;;18.90;99.90;;;;;;5072316;28;20678;-88
2022/06/26 05:58:57;;;;;;;2.17;1.97;;;19.00;99.90;;;;;;5071838;28;21072;-89
2022/06/26 06:01:24;;;;;;;1.50;1.40;;;19.10;99.90;;;;;;5071152;28;20605;-88
2022/06/26 06:03:51;;;;;;;1.40;1.30;;;19.20;99.90;;;;;;5071651;28;20733;-89
2022/06/26 06:06:18;;;;;;;1.63;1.53;;;19.40;98.40;;;;;;5071346;28;20675;-88
2022/06/26 06:08:45;;;;;;;2.00;1.70;;;19.50;98.20;;;;;;5072235;28;20625;-88
2022/06/26 06:11:15;;;;;;;1.50;1.40;;;19.70;97.70;;;;;;5071831;28;20621;-88
2022/06/26 06:13:42;;;;;;;1.63;1.40;;;19.80;97.80;;;;;;5071620;28;20673;-88
2022/06/26 06:16:09;;;;;;;1.50;1.40;;;19.80;98.10;;;;;;5071881;28;20636;-89
2022/06/26 06:18:36;;;;;;;1.60;1.50;;;19.70;98.50;;;;;;5074759;28;20623;-90
2022/06/26 06:21:03;;;;;;;1.80;1.60;;;;;;;;;;5073287;28;20613;-88
2022/06/26 06:23:30;;;;;;;1.00;0.97;;;19.90;98.00;;;;;;5071173;28;20706;-89
2022/06/26 06:25:58;;;;;;;0.90;0.80;;;;;;;;;;5070898;28;20659;-90
2022/06/26 06:28:26;;;;;;;0.80;0.80;;;19.90;95.70;;;;;;5070976;28;20706;-88
2022/06/26 06:30:53;;;;;;;0.63;0.63;;;19.90;95.00;;;;;;5070694;28;20635;-90
2022/06/26 06:33:20;;;;;;;0.77;0.67;;;20.10;94.10;;;;;;5070335;28;20601;-87
2022/06/26 06:35:48;;;;;;;0.80;0.80;;;20.20;94.40;;;;;;5071172;28;20685;-89
2022/06/26 06:38:15;;;;;;;0.47;0.47;;;20.40;93.30;;;;;;5071838;28;20617;-92
2022/06/26 06:40:46;;;;;;;0.50;0.43;;;;;;;;;;5070992;28;20621;-89
2022/06/26 06:43:13;;;;;;;0.40;0.40;;;20.30;92.20;;;;;;5070581;28;20640;-90
2022/06/26 06:45:41;;;;;;;1.50;0.80;;;20.20;92.80;;;;;;5071412;28;20712;-89
2022/06/26 06:48:09;;;;;;;0.50;0.50;;;20.20;92.80;;;;;;5070337;28;20629;-89
2022/06/26 06:50:36;;;;;;;0.70;0.50;;;20.10;92.80;;;;;;5070543;28;20736;-89
2022/06/26 06:53:03;;;;;;;0.60;0.60;;;20.10;93.40;;;;;;5070317;28;20621;-90
2022/06/26 06:55:30;;;;;;;0.70;0.70;;;20.30;92.90;;;;;;5071157;28;20648;-90
2022/06/26 06:57:57;;;;;;;0.70;0.70;;;20.50;93.60;;;;;;5069608;28;21266;-88
2022/06/26 07:00:24;;;;;;;0.80;0.80;;;20.70;92.40;;;;;;5070543;28;21257;-89
2022/06/26 07:02:52;;;;;;;1.00;0.90;;;20.90;93.10;;;;;;5069650;28;20707;-91
2022/06/26 07:05:20;;;;;;;0.67;0.67;;;21.00;92.60;;;;;;5071009;28;20626;-89
2022/06/26 07:07:47;;;;;;;0.80;0.80;;;21.20;92.30;;;;;;5070128;28;20608;-89
2022/06/26 07:10:14;;;;;;;0.77;0.77;;;21.30;91.40;;;;;;5070363;28;21151;-87
2022/06/26 07:12:41;;;;;;;0.60;0.60;;;21.40;91.40;;;;;;5070285;28;20670;-88
2022/06/26 07:15:09;;;;;;;0.90;0.90;;;21.30;91.70;;;;;;5070508;28;20652;-88
2022/06/26 07:17:35;;;;;;;0.90;0.90;;;21.30;92.50;;;;;;5070128;28;20618;-89
2022/06/26 07:20:05;;;;;;;1.50;1.00;;;21.50;92.80;;;;;;5069715;28;21382;-89
2022/06/26 07:22:31;;;;;;;1.47;1.37;;;21.40;91.60;;;;;;5070136;28;20620;-89
2022/06/26 07:24:58;;;;;;;1.80;1.70;;;21.50;91.60;;;;;;5069582;28;21423;-89
2022/06/26 07:27:25;;;;;;;0.73;0.70;;;21.50;91.80;;;;;;5069151;28;20712;-88
2022/06/26 07:29:52;;;;;;;1.20;1.10;;;21.40;92.00;;;;;;5069687;28;20621;-89
2022/06/26 07:32:19;;;;;;;1.40;1.30;;;21.60;92.50;;;;;;5069564;28;20616;-88
2022/06/26 07:34:46;;;;;;;1.10;0.80;;;21.70;91.90;;;;;;5070049;28;20605;-88
2022/06/26 07:37:14;;;;;;;0.80;0.80;;;21.70;92.00;;;;;;5069738;28;20628;-88
2022/06/26 07:39:42;;;;;;;1.00;1.00;;;21.70;91.20;;;;;;5069131;28;20629;-88
2022/06/26 07:42:09;;;;;;;1.30;1.20;;;21.60;91.20;;;;;;5069222;28;20649;-89
2022/06/26 07:44:36;;;;;;;1.30;1.20;;;21.60;91.10;;;;;;5069287;28;21035;-89
2022/06/26 07:47:03;;;;;;;1.23;1.10;;;21.70;92.10;;;;;;5068998;28;20605;-88
2022/06/26 07:49:30;;;;;;;1.10;1.00;;;21.60;91.70;;;;;;5069043;28;20629;-87
2022/06/26 07:51:56;;;;;;;0.77;0.77;;;21.70;90.80;;;;;;5068866;28;20712;-87
2022/06/26 07:54:25;;;;;;;1.30;1.20;;;21.80;91.40;;;;;;5069621;28;20712;-88
2022/06/26 07:56:51;;;;;;;0.83;0.83;;;22.10;91.20;;;;;;5069766;28;20730;-89
2022/06/26 07:59:18;;;;;;;1.43;1.33;;;22.40;90.90;;;;;;5069621;28;20610;-89
2022/06/26 08:01:45;;;;;;;1.00;0.90;;;22.30;90.20;;;;;;5051334;28;20621;-88
2022/06/26 08:04:12;;;;;;;1.27;1.17;;;22.40;90.60;;;;;;5068656;28;20677;-88
2022/06/26 08:06:39;;;;;;;1.23;1.20;;;22.30;90.00;;;;;;5069114;28;20604;-89
2022/06/26 08:09:07;;;;;;;1.10;1.00;;;22.10;90.10;;;;;;5070127;28;20609;-86
2022/06/26 08:11:35;;;;;;;1.00;1.00;;;22.30;90.00;;;;;;5070261;28;20629;-89
2022/06/26 08:14:02;;;;;;;1.07;0.97;;;22.40;88.20;;;;;;5069274;28;20606;-89
2022/06/26 08:16:29;;;;;;;1.40;1.30;;;22.30;90.30;;;;;;5067837;28;20688;-91
2022/06/26 08:18:57;;;;;;;1.10;1.03;;;22.50;89.50;;;;;;5068720;28;21031;-90
2022/06/26 08:24:12;;;;;;;1.50;1.40;;;22.80;89.70;;;;;;5068949;28;20601;-89
2022/06/26 08:26:40;;;;;;;1.43;1.30;;;22.70;85.90;;;;;;5068072;28;20617;-92
2022/06/26 08:29:07;;;;;;;1.07;0.97;;;;;;;;;;5059628;28;21039;-91
2022/06/26 08:31:38;;;;;;;0.60;0.60;;;23.20;87.80;;;;;;5069432;28;20659;-92
2022/06/26 08:34:05;;;;;;;1.87;0.97;;;;;;;;;;5061712;28;20640;-91
2022/06/26 08:36:36;;;;;;;0.97;0.90;;;23.50;85.90;;;;;;5070337;28;20668;-92
2022/06/26 08:39:04;;;;;;;1.90;1.20;;;23.40;86.00;;;;;;5068965;28;20690;-90
2022/06/26 08:41:35;;;;;;;0.80;0.80;;;23.60;86.40;;;;;;5069110;28;21178;-91
2022/06/26 08:44:03;;;;;;;1.10;0.97;;;23.80;86.90;;;;;;5068174;28;20616;-89
2022/06/26 08:46:36;;;;;;;2.00;1.10;;;24.00;84.20;;;;;;5084500;28;20653;-91
2022/06/26 08:49:08;;;;;;;0.97;0.97;;;23.60;85.00;;;;;;5089815;28;20628;-90
2022/06/26 08:51:37;;;;;;;0.80;0.80;;;23.50;86.10;;;;;;5089310;28;20616;-91
2022/06/26 08:54:06;;;;;;;1.07;1.00;;;23.70;85.80;;;;;;5089245;28;20655;-89
2022/06/26 08:56:33;;;;;;;0.80;0.80;;;23.30;82.70;;;;;;5088906;28;20644;-88
2022/06/26 08:59:01;;;;;;;0.90;0.90;;;23.20;83.40;;;;;;5089621;28;20612;-91
2022/06/26 09:01:31;;;;;;;1.40;1.30;;;23.30;87.00;;;;;;5088824;28;20624;-91
2022/06/26 09:03:58;;;;;;;0.80;0.80;;;23.60;83.00;;;;;;5088759;28;21138;-88
2022/06/26 09:06:25;;;;;;;1.20;1.10;;;23.90;83.40;;;;;;5088362;28;20612;-89
2022/06/26 09:08:53;;;;;;;1.20;1.10;;;24.20;82.40;;;;;;5088934;28;20711;-90
2022/06/26 09:11:21;;;;;;;1.10;1.00;;;24.40;81.10;;;;;;5088632;28;20628;-89
2022/06/26 09:13:52;;;;;;;0.77;0.77;;;24.50;80.10;;;;;;5088887;28;20613;-92
2022/06/26 09:16:31;;;;;;;1.50;1.27;;;24.10;80.70;;;;;;5088286;28;21558;-90
2022/06/26 09:19:07;;;;;;;0.93;0.70;;;24.10;81.50;;;;;;5080555;28;20660;-90
2022/06/26 09:21:35;;;;;;;0.80;0.80;;;;;;;;;;5068703;28;20601;-89
2022/06/26 09:24:02;;;;;;;0.70;0.70;;;24.40;82.10;;;;;;5067389;28;20617;-89
2022/06/26 09:26:30;;;;;;;1.13;0.90;;;24.60;81.50;;;;;;5067314;28;20621;-89
2022/06/26 09:28:57;;;;;;;0.87;0.87;;;24.90;79.60;;;;;;5075145;28;20617;-90
2022/06/26 09:31:28;;;;;;;1.07;0.83;;;;;;;;;;5071819;28;20617;-91
2022/06/26 09:34:00;;;;;;;0.90;0.90;;;25.00;80.30;;;;;;5073476;28;21232;-90
2022/06/26 09:36:28;;;;;;;1.43;1.33;;;;;;;;;;5071760;28;20653;-90
2022/06/26 09:38:56;;;;;;;0.50;0.50;;;24.90;81.60;;;;;;5071719;28;21051;-89
2022/06/26 09:41:30;;;;;;;0.60;0.60;;;25.00;80.80;;;;;;5072098;28;20687;-92
2022/06/26 09:44:00;;;;;;;0.70;0.70;;;;;;;;;;5072503;28;20612;-89
2022/06/26 09:46:31;;;;;;;1.43;1.00;;;25.00;77.90;;;;;;5071068;28;20652;-90
2022/06/26 09:49:03;;;;;;;1.67;1.00;;;25.30;79.60;;;;;;5071656;28;20628;-91
2022/06/26 09:51:31;;;;;;;1.10;1.00;;;25.10;79.70;;;;;;5071736;28;20687;-90
2022/06/26 09:53:59;;;;;;;0.63;0.63;;;;;;;;;;5071445;28;20613;-92
2022/06/26 09:56:33;;;;;;;0.97;0.90;;;25.00;78.70;;;;;;5071006;28;21030;-91
2022/06/26 09:59:01;;;;;;;1.10;1.00;;;25.60;76.30;;;;;;5072356;28;20632;-91
2022/06/26 10:07:03;;;;;;;0.80;0.80;;;26.10;78.50;;;;;;5071287;28;21167;-91
2022/06/26 10:09:39;;;;;;;0.70;0.70;;;26.10;76.20;;;;;;5070421;28;20625;-90
2022/06/26 10:12:12;;;;;;;0.87;0.80;;;25.40;75.20;;;;;;5071643;28;20628;-91
2022/06/26 10:14:50;;;;;;;0.50;0.50;;;26.10;78.20;;;;;;5071468;28;20724;-90
2022/06/26 10:17:36;;;;;;;0.70;0.67;;;26.10;78.00;;;;;;5070735;28;20656;-88
2022/06/26 10:20:08;;;;;;;1.13;1.03;;;26.30;73.60;;;;;;5070534;28;21079;-90
2022/06/26 10:22:40;;;;;;;1.10;1.00;;;26.40;74.40;;;;;;5070774;28;20629;-91
2022/06/26 10:25:21;;;;;;;1.17;1.07;;;26.60;75.30;;;;;;5062989;28;20629;-90
2022/06/26 10:27:49;;;;;;;0.90;0.90;;;26.40;73.80;;;;;;5070859;28;21206;-90
2022/06/26 10:30:19;;;;;;;0.77;0.77;;;26.70;70.20;;;;;;5070505;28;20601;-91
2022/06/26 10:32:47;;;;;;;0.90;0.90;;;;;;;;;;5070666;28;20831;-88
2022/06/26 10:35:19;;;;;;;1.00;1.00;;;26.90;73.40;;;;;;5071020;28;20682;-92
2022/06/26 10:37:51;;;;;;;0.90;0.73;;;27.00;72.10;;;;;;5073114;28;20644;-90
2022/06/26 10:43:24;;;;;;;1.17;1.17;;;26.90;73.40;;;;;;5071140;28;20926;-91
2022/06/26 10:46:09;;;;;;;0.70;0.70;;;26.90;72.60;;;;;;5051686;28;20629;-90
2022/06/26 10:48:53;;;;;;;0.77;0.77;;;27.10;72.10;;;;;;5070867;28;20609;-89
2022/06/26 10:51:33;;;;;;;1.47;1.37;;;26.90;72.20;;;;;;5069345;28;20617;-91
2022/06/26 10:54:02;;;;;;;1.00;1.00;;;27.10;73.80;;;;;;5069812;28;20624;-90
2022/06/26 10:56:34;;;;;;;0.77;0.77;;;27.80;71.40;;;;;;5069537;28;21084;-91
2022/06/26 10:59:03;;;;;;;0.97;0.97;;;26.10;70.70;;;;;;5070016;28;20655;-88
2022/06/26 11:01:30;;;;;;;0.93;0.93;;;28.00;70.40;;;;;;5069183;28;20633;-90
2022/06/26 11:03:57;;;;;;;1.13;1.10;;;27.90;71.50;;;;;;5069361;28;20649;-88
2022/06/26 11:06:32;;;;;;;0.87;0.87;;;27.90;69.20;;;;;;5069621;28;20667;-90
2022/06/26 11:09:38;;;;;;;1.20;1.10;;;27.80;68.90;;;;;;5069750;28;20621;-92
2022/06/26 11:12:52;;;;;;;1.20;1.10;;;27.50;69.70;;;;;;5063334;28;20632;-91
2022/06/26 11:15:26;;;;;;;1.00;1.00;;;27.20;69.20;;;;;;5069613;28;20625;-90
2022/06/26 11:17:58;;;;;;;1.13;1.03;;;27.20;69.60;;;;;;5069464;28;20641;-90
2022/06/26 11:20:49;;;;;;;0.73;0.70;;;27.00;71.80;;;;;;5069251;28;20620;-89
2022/06/26 11:23:21;;;;;;;1.20;1.10;;;26.90;73.80;;;;;;5069204;28;20625;-90
2022/06/26 11:25:57;;;;;;;0.83;0.83;;;26.90;72.20;;;;;;5069875;28;21084;-92
2022/06/26 11:28:31;;;;;;;0.83;0.83;;;26.50;70.70;;;;;;5050308;28;20638;-90
2022/06/26 11:31:00;;;;;;;0.80;0.80;;;26.40;71.20;;;;;;5061771;28;20637;-89
2022/06/26 11:33:29;;;;;;;0.87;0.87;;;26.20;72.30;;;;;;5089087;28;20679;-92
2022/06/26 11:36:01;;;;;;;0.80;0.80;;;26.70;73.60;;;;;;5089489;28;20608;-89
2022/06/26 11:38:30;;;;;;;0.97;0.97;;;26.80;72.40;;;;;;5089232;28;20722;-88
2022/06/26 11:40:59;;;;;;;0.90;0.90;;;27.10;69.00;;;;;;5070215;28;20661;-89
2022/06/26 11:43:26;;;;;;;1.20;1.10;;;27.40;69.40;;;;;;5067927;28;20609;-88
2022/06/26 11:45:53;;;;;;;0.60;0.60;;;28.10;69.40;;;;;;5068508;28;21033;-89
2022/06/26 11:48:21;;;;;;;0.60;0.60;;;28.50;69.20;;;;;;5068559;28;20716;-88
2022/06/26 11:50:52;;;;;;;0.70;0.70;;;28.70;67.50;;;;;;5068456;28;20633;-88
2022/06/26 11:53:21;;;;;;;0.60;0.60;;;29.20;64.50;;;;;;5067879;28;20625;-89
2022/06/26 11:55:51;;;;;;;1.30;1.20;;;30.00;63.20;;;;;;5067699;28;21174;-90
2022/06/26 11:58:18;;;;;;;0.67;0.67;;;30.70;63.40;;;;;;5067868;28;21051;-89
2022/06/26 12:00:46;;;;;;;0.83;0.83;;;31.50;61.60;;;;;;5064721;28;20633;-89
2022/06/26 12:03:39;;;;;;;0.80;0.80;;;31.40;58.70;;;;;;5069136;28;20710;-92
2022/06/26 12:06:32;;;;;;;0.90;0.90;;;30.30;60.40;;;;;;5068783;28;20657;-92
2022/06/26 12:09:40;;;;;;;0.73;0.73;;;32.40;58.30;;;;;;5080152;28;20647;-93
2022/06/26 12:12:14;;;;;;;0.90;0.90;;;32.70;54.80;;;;;;5088690;28;20647;-90
2022/06/26 12:14:49;;;;;;;0.80;0.80;;;33.10;55.10;;;;;;5088218;28;20626;-91
2022/06/26 12:17:24;;;;;;;1.00;0.90;;;34.50;55.70;;;;;;5088116;28;20701;-90
2022/06/26 12:19:52;;;;;;;0.80;0.80;;;34.20;53.20;;;;;;5080488;28;20600;-91
2022/06/26 12:22:31;;;;;;;0.80;0.80;;;33.60;53.40;;;;;;5068231;28;20632;-90
2022/06/26 12:24:58;;;;;;;0.97;0.90;;;33.90;53.90;;;;;;5067812;28;20623;-92
2022/06/26 12:27:36;;;;;;;0.80;0.80;;;35.00;51.90;;;;;;5067849;28;20628;-91
2022/06/26 12:30:15;;;;;;;0.83;0.83;;;36.00;51.40;;;;;;5066559;28;20632;-90
2022/06/26 12:32:44;;;;;;;0.73;0.73;;;35.20;47.90;;;;;;5088221;28;20658;-90
2022/06/26 12:35:11;;;;;;;0.90;0.90;;;35.20;49.50;;;;;;5075427;28;20715;-91
2022/06/26 12:37:38;;;;;;;0.60;0.60;;;35.30;49.80;;;;;;5067284;28;21129;-90
2022/06/26 12:40:07;;;;;;;0.83;0.83;;;36.30;49.10;;;;;;5067613;28;20203;-89
2022/06/26 12:42:35;;;;;;;0.87;0.87;;;37.00;47.60;;;;;;5068252;28;20696;-87
2022/06/26 12:45:04;;;;;;;0.57;0.57;;;36.80;46.60;;;;;;5068557;28;20289;-87
2022/06/26 12:47:33;;;;;;;0.80;0.80;;;34.80;47.20;;;;;;5067931;28;20289;-88
2022/06/26 12:50:00;;;;;;;0.93;0.93;;;35.40;49.40;;;;;;5068037;28;21204;-88
2022/06/26 12:52:27;;;;;;;0.90;0.90;;;36.40;47.00;;;;;;5067294;28;20221;-88
2022/06/26 12:54:56;;;;;;;0.70;0.70;;;37.10;48.30;;;;;;5068138;28;20338;-89
2022/06/26 12:57:23;;;;;;;0.90;0.90;;;35.50;47.30;;;;;;5083167;28;20221;-87
2022/06/26 12:59:51;;;;;;;1.17;1.10;;;36.00;48.00;;;;;;5086075;28;20195;-87
2022/06/26 13:02:18;;;;;;;0.70;0.70;;;36.70;46.20;;;;;;5073426;28;20569;-89
2022/06/26 13:04:45;;;;;;;0.70;0.70;;;36.10;46.40;;;;;;5089604;28;20754;-88
2022/06/26 13:07:12;;;;;;;0.90;0.90;;;35.90;48.30;;;;;;5076795;28;20697;-89
2022/06/26 13:09:41;;;;;;;0.77;0.77;;;36.90;47.50;;;;;;5071579;28;20203;-89
2022/06/26 13:12:09;;;;;;;0.80;0.80;;;37.70;46.30;;;;;;5063658;28;20242;-88
2022/06/26 13:14:36;;;;;;;0.65;0.65;;;38.20;44.00;;;;;;5071278;28;20367;-90
2022/06/26 13:17:05;;;;;;;0.70;0.70;;;37.10;45.00;;;;;;5070802;28;20210;-88
2022/06/26 13:19:32;;;;;;;1.37;0.90;;;35.80;45.50;;;;;;5071365;28;20221;-88
2022/06/26 13:21:59;;;;;;;0.77;0.77;;;36.40;45.80;;;;;;5071267;28;20281;-89
2022/06/26 13:24:26;;;;;;;0.70;0.70;;;37.40;46.10;;;;;;5071134;28;20202;-90
2022/06/26 13:26:54;;;;;;;0.75;0.75;;;37.60;44.30;;;;;;5070664;28;20222;-87